createdAt,value
2022-11-14T00:00:10.901Z,8.60
2022-11-14T00:00:19.819Z,8.55
2022-11-14T00:00:29.855Z,8.69
2022-11-14T00:00:39.821Z,8.44
2022-11-14T00:00:49.819Z,8.58
2022-11-14T00:00:59.828Z,8.44
2022-11-14T00:01:09.846Z,8.53
2022-11-14T00:01:20.328Z,8.51
2022-11-14T00:01:29.833Z,8.44
2022-11-14T00:01:39.864Z,8.65
2022-11-14T00:01:49.875Z,8.48
2022-11-14T00:01:59.827Z,8.55
2022-11-14T00:02:09.846Z,8.45
2022-11-14T00:02:20.358Z,8.54
2022-11-14T00:02:29.919Z,8.53
2022-11-14T00:02:39.861Z,8.47
2022-11-14T00:02:49.894Z,8.54
2022-11-14T00:02:59.896Z,8.57
2022-11-14T00:03:09.898Z,8.42
2022-11-14T00:03:19.813Z,8.44
2022-11-14T00:03:29.823Z,8.57
2022-11-14T00:03:39.922Z,8.57
2022-11-14T00:03:49.875Z,8.39
2022-11-14T00:03:59.830Z,8.48
2022-11-14T00:04:10.322Z,8.40
2022-11-14T00:04:21.723Z,8.39
2022-11-14T00:04:29.994Z,8.63
2022-11-14T00:04:39.814Z,8.57
2022-11-14T00:04:49.820Z,8.42
2022-11-14T00:04:59.807Z,8.32
2022-11-14T00:05:09.902Z,8.53
2022-11-14T00:05:19.823Z,8.36
2022-11-14T00:05:29.812Z,8.58
2022-11-14T00:05:39.896Z,8.47
2022-11-14T00:05:49.831Z,8.62
2022-11-14T00:05:59.940Z,8.60
2022-11-14T00:06:09.827Z,8.30
2022-11-14T00:06:20.343Z,8.42
2022-11-14T00:06:29.880Z,8.36
2022-11-14T00:06:39.941Z,8.50
2022-11-14T00:06:49.914Z,8.53
2022-11-14T00:06:59.887Z,8.40
2022-11-14T00:07:09.885Z,8.39
2022-11-14T00:07:20.427Z,8.60
2022-11-14T00:07:29.859Z,8.45
2022-11-14T00:07:39.828Z,8.40
2022-11-14T00:07:49.824Z,8.39
2022-11-14T00:07:59.790Z,8.50
2022-11-14T00:08:09.801Z,8.51
2022-11-14T00:08:19.826Z,8.28
2022-11-14T00:08:30.649Z,8.40
2022-11-14T00:08:39.813Z,8.39
2022-11-14T00:08:49.805Z,8.40
2022-11-14T00:08:59.902Z,8.55
2022-11-14T00:09:09.815Z,8.48
2022-11-14T00:09:19.811Z,8.44
2022-11-14T00:09:29.802Z,8.51
2022-11-14T00:09:39.776Z,8.58
2022-11-14T00:09:49.786Z,8.32
2022-11-14T00:09:59.784Z,8.35
2022-11-14T00:10:09.825Z,8.36
2022-11-14T00:10:19.819Z,8.40
2022-11-14T00:10:29.891Z,8.37
2022-11-14T00:10:39.903Z,8.45
2022-11-14T00:10:49.790Z,8.37
2022-11-14T00:10:59.827Z,8.44
2022-11-14T00:11:09.781Z,8.36
2022-11-14T00:11:19.858Z,8.58
2022-11-14T00:11:29.782Z,8.30
2022-11-14T00:11:39.778Z,8.40
2022-11-14T00:11:49.771Z,8.63
2022-11-14T00:11:59.797Z,8.48
2022-11-14T00:12:09.788Z,8.45
2022-11-14T00:12:19.795Z,8.33
2022-11-14T00:12:29.820Z,8.39
2022-11-14T00:12:40.325Z,8.40
2022-11-14T00:12:49.909Z,8.35
2022-11-14T00:12:59.763Z,8.39
2022-11-14T00:13:09.787Z,8.35
2022-11-14T00:13:19.783Z,8.42
2022-11-14T00:13:29.809Z,8.40
2022-11-14T00:13:39.759Z,8.42
2022-11-14T00:13:49.794Z,8.25
2022-11-14T00:13:59.872Z,8.65
2022-11-14T00:14:09.859Z,8.21
2022-11-14T00:14:19.765Z,8.30
2022-11-14T00:14:29.769Z,8.37
2022-11-14T00:14:40.318Z,8.39
2022-11-14T00:14:49.912Z,8.42
2022-11-14T00:14:59.763Z,8.53
2022-11-14T00:15:09.763Z,8.51
2022-11-14T00:15:19.776Z,8.60
2022-11-14T00:15:29.814Z,8.26
2022-11-14T00:15:39.804Z,8.26
2022-11-14T00:15:49.777Z,8.37
2022-11-14T00:15:59.756Z,8.45
2022-11-14T00:16:09.767Z,8.53
2022-11-14T00:16:19.751Z,8.48
2022-11-14T00:16:29.775Z,8.32
2022-11-14T00:16:39.792Z,8.39
2022-11-14T00:16:50.322Z,8.45
2022-11-14T00:16:59.747Z,8.42
2022-11-14T00:17:09.772Z,8.51
2022-11-14T00:17:19.756Z,8.26
2022-11-14T00:17:29.754Z,8.40
2022-11-14T00:17:39.815Z,8.39
2022-11-14T00:17:49.831Z,8.45
2022-11-14T00:17:59.747Z,8.42
2022-11-14T00:18:09.763Z,8.28
2022-11-14T00:18:19.760Z,8.33
2022-11-14T00:18:30.167Z,8.40
2022-11-14T00:18:40.344Z,8.54
2022-11-14T00:18:49.937Z,8.48
2022-11-14T00:18:59.850Z,8.40
2022-11-14T00:19:09.750Z,8.30
2022-11-14T00:19:19.846Z,8.30
2022-11-14T00:19:29.801Z,8.45
2022-11-14T00:19:39.794Z,8.37
2022-11-14T00:19:50.335Z,8.37
2022-11-14T00:19:59.734Z,8.26
2022-11-14T00:20:09.782Z,8.57
2022-11-14T00:20:19.732Z,8.44
2022-11-14T00:20:29.896Z,8.35
2022-11-14T00:20:39.754Z,8.47
2022-11-14T00:20:49.807Z,8.53
2022-11-14T00:21:00.331Z,8.48
2022-11-14T00:21:09.732Z,8.45
2022-11-14T00:21:19.800Z,8.37
2022-11-14T00:21:29.735Z,8.39
2022-11-14T00:21:39.747Z,8.37
2022-11-14T00:21:49.740Z,8.47
2022-11-14T00:21:59.764Z,8.28
2022-11-14T00:22:09.841Z,8.36
2022-11-14T00:22:19.742Z,8.35
2022-11-14T00:22:29.743Z,8.42
2022-11-14T00:22:39.735Z,8.25
2022-11-14T00:22:49.738Z,8.28
2022-11-14T00:22:59.816Z,8.36
2022-11-14T00:23:09.831Z,8.36
2022-11-14T00:23:19.720Z,8.47
2022-11-14T00:23:29.835Z,8.30
2022-11-14T00:23:39.726Z,8.32
2022-11-14T00:23:49.756Z,8.30
2022-11-14T00:23:59.769Z,8.21
2022-11-14T00:24:09.758Z,8.39
2022-11-14T00:24:19.732Z,8.36
2022-11-14T00:24:29.803Z,8.17
2022-11-14T00:24:39.773Z,8.28
2022-11-14T00:24:49.806Z,8.37
2022-11-14T00:24:59.729Z,8.30
2022-11-14T00:25:10.351Z,8.32
2022-11-14T00:25:19.731Z,8.32
2022-11-14T00:25:29.734Z,8.21
2022-11-14T00:25:39.836Z,8.33
2022-11-14T00:25:49.734Z,8.18
2022-11-14T00:25:59.769Z,8.20
2022-11-14T00:26:09.712Z,8.36
2022-11-14T00:26:19.723Z,8.28
2022-11-14T00:26:30.382Z,8.28
2022-11-14T00:26:39.804Z,8.28
2022-11-14T00:26:49.713Z,8.32
2022-11-14T00:26:59.713Z,8.21
2022-11-14T00:27:10.322Z,8.39
2022-11-14T00:27:19.815Z,8.12
2022-11-14T00:27:29.928Z,8.28
2022-11-14T00:27:39.748Z,8.30
2022-11-14T00:27:49.707Z,8.30
2022-11-14T00:27:59.733Z,8.20
2022-11-14T00:28:09.715Z,8.35
2022-11-14T00:28:19.745Z,8.47
2022-11-14T00:28:30.171Z,8.22
2022-11-14T00:28:39.708Z,8.33
2022-11-14T00:28:49.724Z,8.30
2022-11-14T00:28:59.722Z,8.32
2022-11-14T00:29:09.743Z,8.32
2022-11-14T00:29:20.333Z,8.11
2022-11-14T00:29:29.693Z,8.35
2022-11-14T00:29:39.903Z,8.32
2022-11-14T00:29:49.695Z,8.18
2022-11-14T00:29:59.696Z,8.17
2022-11-14T00:30:09.758Z,8.42
2022-11-14T00:30:19.692Z,8.22
2022-11-14T00:30:29.695Z,8.37
2022-11-14T00:30:39.698Z,8.20
2022-11-14T00:30:49.702Z,8.44
2022-11-14T00:30:59.721Z,8.25
2022-11-14T00:31:09.747Z,8.36
2022-11-14T00:31:20.336Z,8.25
2022-11-14T00:31:29.686Z,8.35
2022-11-14T00:31:39.701Z,8.25
2022-11-14T00:31:49.714Z,8.17
2022-11-14T00:31:59.684Z,8.40
2022-11-14T00:32:10.321Z,8.29
2022-11-14T00:32:19.686Z,8.33
2022-11-14T00:32:29.682Z,8.36
2022-11-14T00:32:39.688Z,8.21
2022-11-14T00:32:49.955Z,8.22
2022-11-14T00:32:59.718Z,8.25
2022-11-14T00:33:09.682Z,8.20
2022-11-14T00:33:20.644Z,8.22
2022-11-14T00:33:29.760Z,8.44
2022-11-14T00:33:39.680Z,8.21
2022-11-14T00:33:49.686Z,8.33
2022-11-14T00:33:59.802Z,8.25
2022-11-14T00:34:09.687Z,8.26
2022-11-14T00:34:19.761Z,8.39
2022-11-14T00:34:29.687Z,8.48
2022-11-14T00:34:39.692Z,8.39
2022-11-14T00:34:49.735Z,8.33
2022-11-14T00:34:59.705Z,8.14
2022-11-14T00:35:09.671Z,8.12
2022-11-14T00:35:19.676Z,8.21
2022-11-14T00:35:29.674Z,8.29
2022-11-14T00:35:40.343Z,8.26
2022-11-14T00:35:49.674Z,8.32
2022-11-14T00:35:59.694Z,8.32
2022-11-14T00:36:09.664Z,8.36
2022-11-14T00:36:19.709Z,8.33
2022-11-14T00:36:29.686Z,8.28
2022-11-14T00:36:39.690Z,8.22
2022-11-14T00:36:49.676Z,8.40
2022-11-14T00:36:59.670Z,8.26
2022-11-14T00:37:09.671Z,8.22
2022-11-14T00:37:19.681Z,8.29
2022-11-14T00:37:30.325Z,8.29
2022-11-14T00:37:40.323Z,8.35
2022-11-14T00:37:49.676Z,8.21
2022-11-14T00:37:59.682Z,8.14
2022-11-14T00:38:09.657Z,8.08
2022-11-14T00:38:19.705Z,8.36
2022-11-14T00:38:29.867Z,8.42
2022-11-14T00:38:39.671Z,8.39
2022-11-14T00:38:49.653Z,8.25
2022-11-14T00:38:59.672Z,8.42
2022-11-14T00:39:09.654Z,8.33
2022-11-14T00:39:19.657Z,8.25
2022-11-14T00:39:29.658Z,8.33
2022-11-14T00:39:40.340Z,8.26
2022-11-14T00:39:49.756Z,8.32
2022-11-14T00:39:59.727Z,8.33
2022-11-14T00:40:09.669Z,8.39
2022-11-14T00:40:19.721Z,8.17
2022-11-14T00:40:29.832Z,8.18
2022-11-14T00:40:39.663Z,8.18
2022-11-14T00:40:49.649Z,8.30
2022-11-14T00:40:59.656Z,8.32
2022-11-14T00:41:09.658Z,8.22
2022-11-14T00:41:19.673Z,8.28
2022-11-14T00:41:29.643Z,8.33
2022-11-14T00:41:39.734Z,8.36
2022-11-14T00:41:49.815Z,8.47
2022-11-14T00:41:59.643Z,8.40
2022-11-14T00:42:09.643Z,8.29
2022-11-14T00:42:19.668Z,8.26
2022-11-14T00:42:29.645Z,8.29
2022-11-14T00:42:39.672Z,8.21
2022-11-14T00:42:49.642Z,8.36
2022-11-14T00:43:00.351Z,8.21
2022-11-14T00:43:09.646Z,8.18
2022-11-14T00:43:19.639Z,8.25
2022-11-14T00:43:29.647Z,8.28
2022-11-14T00:43:39.655Z,8.21
2022-11-14T00:43:50.337Z,8.29
2022-11-14T00:43:59.757Z,8.26
2022-11-14T00:44:09.655Z,8.14
2022-11-14T00:44:20.345Z,8.36
2022-11-14T00:44:29.649Z,8.17
2022-11-14T00:44:39.632Z,8.14
2022-11-14T00:44:49.630Z,8.29
2022-11-14T00:44:59.634Z,8.42
2022-11-14T00:45:09.777Z,8.25
2022-11-14T00:45:20.394Z,8.25
2022-11-14T00:45:29.630Z,8.25
2022-11-14T00:45:39.641Z,8.32
2022-11-14T00:45:49.634Z,8.35
2022-11-14T00:45:59.751Z,8.29
2022-11-14T00:46:09.626Z,8.20
2022-11-14T00:46:19.910Z,8.47
2022-11-14T00:46:29.647Z,8.42
2022-11-14T00:46:39.628Z,8.39
2022-11-14T00:46:49.628Z,8.20
2022-11-14T00:46:59.641Z,8.36
2022-11-14T00:47:09.626Z,8.42
2022-11-14T00:47:19.646Z,8.32
2022-11-14T00:47:29.619Z,8.26
2022-11-14T00:47:39.716Z,8.29
2022-11-14T00:47:50.329Z,8.37
2022-11-14T00:48:00.454Z,8.45
2022-11-14T00:48:09.642Z,8.22
2022-11-14T00:48:19.655Z,8.50
2022-11-14T00:48:29.942Z,8.37
2022-11-14T00:48:39.642Z,8.37
2022-11-14T00:48:49.654Z,8.33
2022-11-14T00:48:59.692Z,8.50
2022-11-14T00:49:10.460Z,8.36
2022-11-14T00:49:19.677Z,8.32
2022-11-14T00:49:29.632Z,8.37
2022-11-14T00:49:39.622Z,8.36
2022-11-14T00:49:49.607Z,8.35
2022-11-14T00:49:59.651Z,8.36
2022-11-14T00:50:09.792Z,8.45
2022-11-14T00:50:19.811Z,8.54
2022-11-14T00:50:29.599Z,8.44
2022-11-14T00:50:39.607Z,8.33
2022-11-14T00:50:49.688Z,8.28
2022-11-14T00:51:00.338Z,8.32
2022-11-14T00:51:09.601Z,8.45
2022-11-14T00:51:19.613Z,8.44
2022-11-14T00:51:29.670Z,8.33
2022-11-14T00:51:39.627Z,8.39
2022-11-14T00:51:49.630Z,8.32
2022-11-14T00:51:59.606Z,8.44
2022-11-14T00:52:10.325Z,8.44
2022-11-14T00:52:19.604Z,8.36
2022-11-14T00:52:29.608Z,8.28
2022-11-14T00:52:39.640Z,8.45
2022-11-14T00:52:49.595Z,8.32
2022-11-14T00:53:00.330Z,8.33
2022-11-14T00:53:09.595Z,8.44
2022-11-14T00:53:19.637Z,8.50
2022-11-14T00:53:29.649Z,8.42
2022-11-14T00:53:39.641Z,8.47
2022-11-14T00:53:49.653Z,8.45
2022-11-14T00:53:59.645Z,8.36
2022-11-14T00:54:09.680Z,8.33
2022-11-14T00:54:20.337Z,8.39
2022-11-14T00:54:29.646Z,8.40
2022-11-14T00:54:39.592Z,8.35
2022-11-14T00:54:49.609Z,8.22
2022-11-14T00:54:59.603Z,8.47
2022-11-14T00:55:09.590Z,8.35
2022-11-14T00:55:19.597Z,8.45
2022-11-14T00:55:29.686Z,8.51
2022-11-14T00:55:39.616Z,8.36
2022-11-14T00:55:49.602Z,8.30
2022-11-14T00:55:59.595Z,8.60
2022-11-14T00:56:09.693Z,8.47
2022-11-14T00:56:19.651Z,8.37
2022-11-14T00:56:29.605Z,8.35
2022-11-14T00:56:39.624Z,8.30
2022-11-14T00:56:49.621Z,8.29
2022-11-14T00:56:59.579Z,8.47
2022-11-14T00:57:09.576Z,8.55
2022-11-14T00:57:19.574Z,8.48
2022-11-14T00:57:29.579Z,8.35
2022-11-14T00:57:39.609Z,8.51
2022-11-14T00:57:49.640Z,8.69
2022-11-14T00:57:59.645Z,8.50
2022-11-14T00:58:09.574Z,8.40
2022-11-14T00:58:20.331Z,8.55
2022-11-14T00:58:30.044Z,8.44
2022-11-14T00:58:39.652Z,8.60
2022-11-14T00:58:49.600Z,8.55
2022-11-14T00:58:59.630Z,8.39
2022-11-14T00:59:10.332Z,8.35
2022-11-14T00:59:19.599Z,8.54
2022-11-14T00:59:29.565Z,8.44
2022-11-14T00:59:40.336Z,8.60
2022-11-14T00:59:49.642Z,8.57
2022-11-14T00:59:59.578Z,8.50
2022-11-14T01:00:09.612Z,8.58
2022-11-14T01:00:19.720Z,8.44
2022-11-14T01:00:29.694Z,8.57
2022-11-14T01:00:39.828Z,8.53
2022-11-14T01:00:49.654Z,8.54
2022-11-14T01:00:59.652Z,8.54
2022-11-14T01:01:09.807Z,8.44
2022-11-14T01:01:19.613Z,8.62
2022-11-14T01:01:29.587Z,8.42
2022-11-14T01:01:39.687Z,8.45
2022-11-14T01:01:51.972Z,8.62
2022-11-14T01:01:59.678Z,8.55
2022-11-14T01:02:09.549Z,8.50
2022-11-14T01:02:19.599Z,8.60
2022-11-14T01:02:30.331Z,8.63
2022-11-14T01:02:39.696Z,8.57
2022-11-14T01:02:49.578Z,8.36
2022-11-14T01:02:59.718Z,8.47
2022-11-14T01:03:09.554Z,8.47
2022-11-14T01:03:19.549Z,8.57
2022-11-14T01:03:29.576Z,8.54
2022-11-14T01:03:39.554Z,8.35
2022-11-14T01:03:49.581Z,8.57
2022-11-14T01:03:59.610Z,8.54
2022-11-14T01:04:09.547Z,8.48
2022-11-14T01:04:19.689Z,8.60
2022-11-14T01:04:30.334Z,8.47
2022-11-14T01:04:39.643Z,8.39
2022-11-14T01:04:49.556Z,8.53
2022-11-14T01:04:59.571Z,8.42
2022-11-14T01:05:09.540Z,8.51
2022-11-14T01:05:20.331Z,8.58
2022-11-14T01:05:29.534Z,8.68
2022-11-14T01:05:39.564Z,8.48
2022-11-14T01:05:49.599Z,8.55
2022-11-14T01:05:59.543Z,8.63
2022-11-14T01:06:09.553Z,8.50
2022-11-14T01:06:19.552Z,8.50
2022-11-14T01:06:29.551Z,8.51
2022-11-14T01:06:40.353Z,8.51
2022-11-14T01:06:49.557Z,8.42
2022-11-14T01:06:59.534Z,8.53
2022-11-14T01:07:09.550Z,8.62
2022-11-14T01:07:19.612Z,8.66
2022-11-14T01:07:29.534Z,8.62
2022-11-14T01:07:39.574Z,8.42
2022-11-14T01:07:49.553Z,8.47
2022-11-14T01:07:59.533Z,8.78
2022-11-14T01:08:09.552Z,8.65
2022-11-14T01:08:19.571Z,8.37
2022-11-14T01:08:29.877Z,8.47
2022-11-14T01:08:39.543Z,8.55
2022-11-14T01:08:49.771Z,8.42
2022-11-14T01:08:59.566Z,8.51
2022-11-14T01:09:09.784Z,8.47
2022-11-14T01:09:19.579Z,8.60
2022-11-14T01:09:29.584Z,8.45
2022-11-14T01:09:39.655Z,8.42
2022-11-14T01:09:49.517Z,8.55
2022-11-14T01:09:59.543Z,8.62
2022-11-14T01:10:09.545Z,8.51
2022-11-14T01:10:19.515Z,8.45
2022-11-14T01:10:29.559Z,8.63
2022-11-14T01:10:39.563Z,8.53
2022-11-14T01:10:49.651Z,8.55
2022-11-14T01:10:59.563Z,8.65
2022-11-14T01:11:10.356Z,8.33
2022-11-14T01:11:19.519Z,8.48
2022-11-14T01:11:29.528Z,8.42
2022-11-14T01:11:39.686Z,8.37
2022-11-14T01:11:49.516Z,8.58
2022-11-14T01:11:59.520Z,8.60
2022-11-14T01:12:09.550Z,8.63
2022-11-14T01:12:19.524Z,8.69
2022-11-14T01:12:29.526Z,8.48
2022-11-14T01:12:39.505Z,8.66
2022-11-14T01:12:49.541Z,8.69
2022-11-14T01:12:59.746Z,8.65
2022-11-14T01:13:09.509Z,8.48
2022-11-14T01:13:19.527Z,8.50
2022-11-14T01:13:29.665Z,8.72
2022-11-14T01:13:39.509Z,8.47
2022-11-14T01:13:49.535Z,8.47
2022-11-14T01:13:59.533Z,8.50
2022-11-14T01:14:09.506Z,8.53
2022-11-14T01:14:19.531Z,8.45
2022-11-14T01:14:29.536Z,8.40
2022-11-14T01:14:39.514Z,8.45
2022-11-14T01:14:49.519Z,8.45
2022-11-14T01:14:59.699Z,8.53
2022-11-14T01:15:09.510Z,8.50
2022-11-14T01:15:19.507Z,8.57
2022-11-14T01:15:30.415Z,8.55
2022-11-14T01:15:39.508Z,8.71
2022-11-14T01:15:49.512Z,8.50
2022-11-14T01:15:59.499Z,8.63
2022-11-14T01:16:09.579Z,8.48
2022-11-14T01:16:19.505Z,8.55
2022-11-14T01:16:29.492Z,8.47
2022-11-14T01:16:39.629Z,8.62
2022-11-14T01:16:50.337Z,8.51
2022-11-14T01:17:00.335Z,8.58
2022-11-14T01:17:09.490Z,8.32
2022-11-14T01:17:19.507Z,8.57
2022-11-14T01:17:29.494Z,8.47
2022-11-14T01:17:39.555Z,8.65
2022-11-14T01:17:49.489Z,8.60
2022-11-14T01:17:59.494Z,8.54
2022-11-14T01:18:10.515Z,8.45
2022-11-14T01:18:19.489Z,8.53
2022-11-14T01:18:29.811Z,8.55
2022-11-14T01:18:39.502Z,8.51
2022-11-14T01:18:49.489Z,8.54
2022-11-14T01:19:00.332Z,8.39
2022-11-14T01:19:09.611Z,8.48
2022-11-14T01:19:19.481Z,8.55
2022-11-14T01:19:29.627Z,8.53
2022-11-14T01:19:39.502Z,8.50
2022-11-14T01:19:50.355Z,8.48
2022-11-14T01:19:59.474Z,8.63
2022-11-14T01:20:09.499Z,8.45
2022-11-14T01:20:19.481Z,8.57
2022-11-14T01:20:29.481Z,8.54
2022-11-14T01:20:39.503Z,8.53
2022-11-14T01:20:49.483Z,8.50
2022-11-14T01:20:59.655Z,8.50
2022-11-14T01:21:10.335Z,8.40
2022-11-14T01:21:19.641Z,8.44
2022-11-14T01:21:29.487Z,8.72
2022-11-14T01:21:39.476Z,8.40
2022-11-14T01:21:49.500Z,8.45
2022-11-14T01:22:03.155Z,8.45
2022-11-14T01:22:09.520Z,8.48
2022-11-14T01:22:19.483Z,8.39
2022-11-14T01:22:29.489Z,8.37
2022-11-14T01:22:40.345Z,8.44
2022-11-14T01:22:49.468Z,8.47
2022-11-14T01:22:59.495Z,8.40
2022-11-14T01:23:10.350Z,8.39
2022-11-14T01:23:19.557Z,8.48
2022-11-14T01:23:29.486Z,8.66
2022-11-14T01:23:39.464Z,8.63
2022-11-14T01:23:49.470Z,8.33
2022-11-14T01:23:59.495Z,8.36
2022-11-14T01:24:09.500Z,8.45
2022-11-14T01:24:19.468Z,8.58
2022-11-14T01:24:29.464Z,8.48
2022-11-14T01:24:39.474Z,8.62
2022-11-14T01:24:49.483Z,8.55
2022-11-14T01:24:59.467Z,8.58
2022-11-14T01:25:09.483Z,8.33
2022-11-14T01:25:20.332Z,8.37
2022-11-14T01:25:29.455Z,8.48
2022-11-14T01:25:39.453Z,8.47
2022-11-14T01:25:49.477Z,8.42
2022-11-14T01:25:59.448Z,8.54
2022-11-14T01:26:09.479Z,8.48
2022-11-14T01:26:19.486Z,8.40
2022-11-14T01:26:29.527Z,8.47
2022-11-14T01:26:39.452Z,8.51
2022-11-14T01:26:49.498Z,8.42
2022-11-14T01:26:59.469Z,8.51
2022-11-14T01:27:09.454Z,8.53
2022-11-14T01:27:22.357Z,8.47
2022-11-14T01:27:29.537Z,8.40
2022-11-14T01:27:39.456Z,8.48
2022-11-14T01:27:49.478Z,8.40
2022-11-14T01:27:59.462Z,8.63
2022-11-14T01:28:09.460Z,8.35
2022-11-14T01:28:19.455Z,8.60
2022-11-14T01:28:29.692Z,8.53
2022-11-14T01:28:39.447Z,8.44
2022-11-14T01:28:49.536Z,8.33
2022-11-14T01:28:59.437Z,8.45
2022-11-14T01:29:09.443Z,8.55
2022-11-14T01:29:20.364Z,8.54
2022-11-14T01:29:30.365Z,8.50
2022-11-14T01:29:39.457Z,8.48
2022-11-14T01:29:49.441Z,8.39
2022-11-14T01:29:59.436Z,8.51
2022-11-14T01:30:09.433Z,8.42
2022-11-14T01:30:19.526Z,8.47
2022-11-14T01:30:29.543Z,8.44
2022-11-14T01:30:39.434Z,8.45
2022-11-14T01:30:49.460Z,8.51
2022-11-14T01:30:59.447Z,8.58
2022-11-14T01:31:09.441Z,8.48
2022-11-14T01:31:19.441Z,8.57
2022-11-14T01:31:29.452Z,8.45
2022-11-14T01:31:39.539Z,8.57
2022-11-14T01:31:49.427Z,8.53
2022-11-14T01:31:59.431Z,8.51
2022-11-14T01:32:09.425Z,8.33
2022-11-14T01:32:19.425Z,8.37
2022-11-14T01:32:29.452Z,8.60
2022-11-14T01:32:39.425Z,8.47
2022-11-14T01:32:49.547Z,8.60
2022-11-14T01:33:00.341Z,8.53
2022-11-14T01:33:09.424Z,8.72
2022-11-14T01:33:19.495Z,8.32
2022-11-14T01:33:29.461Z,8.48
2022-11-14T01:33:39.498Z,8.47
2022-11-14T01:33:49.445Z,8.47
2022-11-14T01:33:59.670Z,8.58
2022-11-14T01:34:09.422Z,8.44
2022-11-14T01:34:19.569Z,8.55
2022-11-14T01:34:30.344Z,8.50
2022-11-14T01:34:39.525Z,8.63
2022-11-14T01:34:49.421Z,8.50
2022-11-14T01:34:59.409Z,8.53
2022-11-14T01:35:09.429Z,8.44
2022-11-14T01:35:19.416Z,8.45
2022-11-14T01:35:29.414Z,8.42
2022-11-14T01:35:39.527Z,8.40
2022-11-14T01:35:49.529Z,8.47
2022-11-14T01:35:59.415Z,8.44
2022-11-14T01:36:09.420Z,8.53
2022-11-14T01:36:19.407Z,8.44
2022-11-14T01:36:29.415Z,8.58
2022-11-14T01:36:39.424Z,8.57
2022-11-14T01:36:49.492Z,8.54
2022-11-14T01:36:59.491Z,8.44
2022-11-14T01:37:09.427Z,8.65
2022-11-14T01:37:19.412Z,8.53
2022-11-14T01:37:29.414Z,8.60
2022-11-14T01:37:40.373Z,8.65
2022-11-14T01:37:50.383Z,8.54
2022-11-14T01:37:59.423Z,8.48
2022-11-14T01:38:09.528Z,8.40
2022-11-14T01:38:19.406Z,8.54
2022-11-14T01:38:29.866Z,8.51
2022-11-14T01:38:40.358Z,8.62
2022-11-14T01:38:49.403Z,8.63
2022-11-14T01:38:59.426Z,8.54
2022-11-14T01:39:09.547Z,8.48
2022-11-14T01:39:19.609Z,8.48
2022-11-14T01:39:30.307Z,8.53
2022-11-14T01:39:39.408Z,8.60
2022-11-14T01:39:49.409Z,8.57
2022-11-14T01:39:59.393Z,8.42
2022-11-14T01:40:09.394Z,8.69
2022-11-14T01:40:19.399Z,8.54
2022-11-14T01:40:29.407Z,8.55
2022-11-14T01:40:39.397Z,8.54
2022-11-14T01:40:49.408Z,8.62
2022-11-14T01:40:59.439Z,8.58
2022-11-14T01:41:09.399Z,8.58
2022-11-14T01:41:19.390Z,8.53
2022-11-14T01:41:29.389Z,8.60
2022-11-14T01:41:39.388Z,8.66
2022-11-14T01:41:49.443Z,8.54
2022-11-14T01:42:00.408Z,8.68
2022-11-14T01:42:09.395Z,8.79
2022-11-14T01:42:23.092Z,8.48
2022-11-14T01:42:30.364Z,8.72
2022-11-14T01:42:39.395Z,8.69
2022-11-14T01:42:49.419Z,8.58
2022-11-14T01:42:59.381Z,8.63
2022-11-14T01:43:09.401Z,8.71
2022-11-14T01:43:19.386Z,8.72
2022-11-14T01:43:29.386Z,8.71
2022-11-14T01:43:39.390Z,8.65
2022-11-14T01:43:49.419Z,8.50
2022-11-14T01:43:59.392Z,8.60
2022-11-14T01:44:09.495Z,8.60
2022-11-14T01:44:19.381Z,8.63
2022-11-14T01:44:29.385Z,8.51
2022-11-14T01:44:39.371Z,8.54
2022-11-14T01:44:49.385Z,8.63
2022-11-14T01:45:00.342Z,8.58
2022-11-14T01:45:09.391Z,8.65
2022-11-14T01:45:19.412Z,8.65
2022-11-14T01:45:29.381Z,8.79
2022-11-14T01:45:39.373Z,8.53
2022-11-14T01:45:49.380Z,8.55
2022-11-14T01:46:00.345Z,8.68
2022-11-14T01:46:10.408Z,8.39
2022-11-14T01:46:19.367Z,8.54
2022-11-14T01:46:29.381Z,8.39
2022-11-14T01:46:39.385Z,8.63
2022-11-14T01:46:49.375Z,8.78
2022-11-14T01:46:59.377Z,8.63
2022-11-14T01:47:09.937Z,8.50
2022-11-14T01:47:19.397Z,8.60
2022-11-14T01:47:29.375Z,8.54
2022-11-14T01:47:39.416Z,8.75
2022-11-14T01:47:49.364Z,8.57
2022-11-14T01:48:00.380Z,8.66
2022-11-14T01:48:10.421Z,8.47
2022-11-14T01:48:19.369Z,8.53
2022-11-14T01:48:29.565Z,8.62
2022-11-14T01:48:39.394Z,8.45
2022-11-14T01:48:49.371Z,8.58
2022-11-14T01:48:59.360Z,8.65
2022-11-14T01:49:09.532Z,8.63
2022-11-14T01:49:19.421Z,8.55
2022-11-14T01:49:29.409Z,8.51
2022-11-14T01:49:39.350Z,8.60
2022-11-14T01:49:50.518Z,8.62
2022-11-14T01:49:59.424Z,8.51
2022-11-14T01:50:09.393Z,8.69
2022-11-14T01:50:19.446Z,8.53
2022-11-14T01:50:29.357Z,8.62
2022-11-14T01:50:39.350Z,8.51
2022-11-14T01:50:49.373Z,8.50
2022-11-14T01:50:59.364Z,8.55
2022-11-14T01:51:09.355Z,8.63
2022-11-14T01:51:19.349Z,8.54
2022-11-14T01:51:29.383Z,8.42
2022-11-14T01:51:39.350Z,8.55
2022-11-14T01:51:49.392Z,8.78
2022-11-14T01:51:59.369Z,8.68
2022-11-14T01:52:09.470Z,8.47
2022-11-14T01:52:19.914Z,8.60
2022-11-14T01:52:29.344Z,8.65
2022-11-14T01:52:39.341Z,8.51
2022-11-14T01:52:49.375Z,8.53
2022-11-14T01:52:59.345Z,8.50
2022-11-14T01:53:09.364Z,8.42
2022-11-14T01:53:19.382Z,8.65
2022-11-14T01:53:29.347Z,8.63
2022-11-14T01:53:39.334Z,8.54
2022-11-14T01:53:49.342Z,8.45
2022-11-14T01:53:59.346Z,8.60
2022-11-14T01:54:09.367Z,8.75
2022-11-14T01:54:19.435Z,8.76
2022-11-14T01:54:29.420Z,8.51
2022-11-14T01:54:39.854Z,8.60
2022-11-14T01:54:49.389Z,8.68
2022-11-14T01:54:59.334Z,8.72
2022-11-14T01:55:09.357Z,8.51
2022-11-14T01:55:19.372Z,8.75
2022-11-14T01:55:29.332Z,8.55
2022-11-14T01:55:39.335Z,8.66
2022-11-14T01:55:49.323Z,8.48
2022-11-14T01:55:59.351Z,8.63
2022-11-14T01:56:09.368Z,8.55
2022-11-14T01:56:19.353Z,8.53
2022-11-14T01:56:29.852Z,8.50
2022-11-14T01:56:39.337Z,8.55
2022-11-14T01:56:49.325Z,8.58
2022-11-14T01:56:59.344Z,8.62
2022-11-14T01:57:09.341Z,8.58
2022-11-14T01:57:19.334Z,8.58
2022-11-14T01:57:29.399Z,8.54
2022-11-14T01:57:39.328Z,8.55
2022-11-14T01:57:49.324Z,8.63
2022-11-14T01:57:59.459Z,8.50
2022-11-14T01:58:09.330Z,8.48
2022-11-14T01:58:19.334Z,8.60
2022-11-14T01:58:29.541Z,8.53
2022-11-14T01:58:39.409Z,8.55
2022-11-14T01:58:49.320Z,8.76
2022-11-14T01:58:59.317Z,8.57
2022-11-14T01:59:09.335Z,8.55
2022-11-14T01:59:19.324Z,8.65
2022-11-14T01:59:29.433Z,8.48
2022-11-14T01:59:39.331Z,8.68
2022-11-14T01:59:49.423Z,8.45
2022-11-14T01:59:59.325Z,8.71
2022-11-14T02:00:09.306Z,8.68
2022-11-14T02:00:19.323Z,8.53
2022-11-14T02:00:29.314Z,8.65
2022-11-14T02:00:41.874Z,8.57
2022-11-14T02:00:49.299Z,8.58
2022-11-14T02:00:59.431Z,8.65
2022-11-14T02:01:09.315Z,8.68
2022-11-14T02:01:19.367Z,8.47
2022-11-14T02:01:29.348Z,8.73
2022-11-14T02:01:39.374Z,8.57
2022-11-14T02:01:49.399Z,8.63
2022-11-14T02:01:59.353Z,8.54
2022-11-14T02:02:09.297Z,8.65
2022-11-14T02:02:19.302Z,8.53
2022-11-14T02:02:29.301Z,8.48
2022-11-14T02:02:39.521Z,8.73
2022-11-14T02:02:49.416Z,8.60
2022-11-14T02:02:59.318Z,8.54
2022-11-14T02:03:09.305Z,8.73
2022-11-14T02:03:19.301Z,8.58
2022-11-14T02:03:29.853Z,8.75
2022-11-14T02:03:39.337Z,8.62
2022-11-14T02:03:49.297Z,8.60
2022-11-14T02:03:59.290Z,8.73
2022-11-14T02:04:12.844Z,8.58
2022-11-14T02:04:19.316Z,8.66
2022-11-14T02:04:29.303Z,8.94
2022-11-14T02:04:39.295Z,8.69
2022-11-14T02:04:49.865Z,8.72
2022-11-14T02:04:59.411Z,8.51
2022-11-14T02:05:09.283Z,8.55
2022-11-14T02:05:19.288Z,8.55
2022-11-14T02:05:29.287Z,8.62
2022-11-14T02:05:39.289Z,8.54
2022-11-14T02:05:49.314Z,8.72
2022-11-14T02:05:59.304Z,8.69
2022-11-14T02:06:09.280Z,8.48
2022-11-14T02:06:19.282Z,8.75
2022-11-14T02:06:29.281Z,8.69
2022-11-14T02:06:39.289Z,8.63
2022-11-14T02:06:49.359Z,8.57
2022-11-14T02:06:59.412Z,8.53
2022-11-14T02:07:09.388Z,8.57
2022-11-14T02:07:19.301Z,8.72
2022-11-14T02:07:29.403Z,8.58
2022-11-14T02:07:39.356Z,8.42
2022-11-14T02:07:49.327Z,8.51
2022-11-14T02:07:59.285Z,8.58
2022-11-14T02:08:09.283Z,8.53
2022-11-14T02:08:19.302Z,8.60
2022-11-14T02:08:29.768Z,8.65
2022-11-14T02:08:39.276Z,8.71
2022-11-14T02:08:49.312Z,8.68
2022-11-14T02:08:59.338Z,8.65
2022-11-14T02:09:09.282Z,8.62
2022-11-14T02:09:19.304Z,8.51
2022-11-14T02:09:29.367Z,8.54
2022-11-14T02:09:39.272Z,8.44
2022-11-14T02:09:49.270Z,8.53
2022-11-14T02:09:59.273Z,8.54
2022-11-14T02:10:09.276Z,8.47
2022-11-14T02:10:19.948Z,8.55
2022-11-14T02:10:29.266Z,8.51
2022-11-14T02:10:39.268Z,8.55
2022-11-14T02:10:49.295Z,8.54
2022-11-14T02:10:59.290Z,8.55
2022-11-14T02:11:09.264Z,8.53
2022-11-14T02:11:19.266Z,8.58
2022-11-14T02:11:29.280Z,8.71
2022-11-14T02:11:39.275Z,8.62
2022-11-14T02:11:49.263Z,8.51
2022-11-14T02:11:59.285Z,8.73
2022-11-14T02:12:09.278Z,8.68
2022-11-14T02:12:19.267Z,8.53
2022-11-14T02:12:29.321Z,8.62
2022-11-14T02:12:39.275Z,8.54
2022-11-14T02:12:49.265Z,8.62
2022-11-14T02:12:59.350Z,8.44
2022-11-14T02:13:09.860Z,8.45